sensor_id;sensor_type;location;lat;lon;timestamp;temperature;humidity
48912;DHT22;34722;52.108;5.044;2023-05-02T02:28:29;10.20;99.90
48912;DHT22;34722;52.108;5.044;2023-05-02T02:30:56;10.20;99.90
48912;DHT22;34722;52.108;5.044;2023-05-02T02:33:23;10.20;99.90
48912;DHT22;34722;52.108;5.044;2023-05-02T02:36:09;10.20;99.90
48912;DHT22;34722;52.108;5.044;2023-05-02T02:38:45;10.10;99.90
48912;DHT22;34722;52.108;5.044;2023-05-02T02:41:17;10.10;99.90
48912;DHT22;34722;52.108;5.044;2023-05-02T02:43:48;10.10;99.90
48912;DHT22;34722;52.108;5.044;2023-05-02T02:46:33;10.10;99.90
48912;DHT22;34722;52.108;5.044;2023-05-02T02:49:14;10.10;99.90
48912;DHT22;34722;52.108;5.044;2023-05-02T02:51:51;10.10;99.90
48912;DHT22;34722;52.108;5.044;2023-05-02T02:54:28;10.10;99.90
48912;DHT22;34722;52.108;5.044;2023-05-02T02:57:06;10.10;99.90
48912;DHT22;34722;52.108;5.044;2023-05-02T02:59:44;10.10;99.90
48912;DHT22;34722;52.108;5.044;2023-05-02T03:02:14;10.10;99.90
48912;DHT22;34722;52.108;5.044;2023-05-02T03:04:42;10.10;99.90
48912;DHT22;34722;52.108;5.044;2023-05-02T03:07:09;10.10;99.90
48912;DHT22;34722;52.108;5.044;2023-05-02T03:09:45;10.00;99.90
48912;DHT22;34722;52.108;5.044;2023-05-02T03:12:12;10.00;99.90
48912;DHT22;34722;52.108;5.044;2023-05-02T03:14:38;10.00;99.90
48912;DHT22;34722;52.108;5.044;2023-05-02T03:17:05;10.00;99.90
48912;DHT22;34722;52.108;5.044;2023-05-02T03:19:33;10.00;99.90
48912;DHT22;34722;52.108;5.044;2023-05-02T03:21:58;9.90;99.90
48912;DHT22;34722;52.108;5.044;2023-05-02T03:24:24;10.00;99.90
48912;DHT22;34722;52.108;5.044;2023-05-02T03:26:54;9.90;99.90
48912;DHT22;34722;52.108;5.044;2023-05-02T03:29:20;9.90;99.90
48912;DHT22;34722;52.108;5.044;2023-05-02T03:31:46;9.90;99.90
48912;DHT22;34722;52.108;5.044;2023-05-02T03:34:12;9.90;99.90
48912;DHT22;34722;52.108;5.044;2023-05-02T03:36:38;9.90;99.90
48912;DHT22;34722;52.108;5.044;2023-05-02T03:39:03;9.90;99.90
48912;DHT22;34722;52.108;5.044;2023-05-02T03:41:29;9.80;99.90
48912;DHT22;34722;52.108;5.044;2023-05-02T03:43:54;9.70;99.90
48912;DHT22;34722;52.108;5.044;2023-05-02T03:46:20;9.80;99.90
48912;DHT22;34722;52.108;5.044;2023-05-02T03:48:46;9.80;99.90
48912;DHT22;34722;52.108;5.044;2023-05-02T03:51:11;9.80;99.90
48912;DHT22;34722;52.108;5.044;2023-05-02T03:53:37;9.70;99.90
48912;DHT22;34722;52.108;5.044;2023-05-02T03:56:04;9.70;99.90
48912;DHT22;34722;52.108;5.044;2023-05-02T03:58:32;9.60;99.90
48912;DHT22;34722;52.108;5.044;2023-05-02T04:00:58;9.60;99.90
48912;DHT22;34722;52.108;5.044;2023-05-02T04:03:23;9.60;99.90
48912;DHT22;34722;52.108;5.044;2023-05-02T04:05:49;9.60;99.90
48912;DHT22;34722;52.108;5.044;2023-05-02T04:08:16;9.50;99.90
48912;DHT22;34722;52.108;5.044;2023-05-02T04:10:42;9.40;99.90
48912;DHT22;34722;52.108;5.044;2023-05-02T04:13:07;9.20;99.90
48912;DHT22;34722;52.108;5.044;2023-05-02T04:15:33;9.20;99.90
48912;DHT22;34722;52.108;5.044;2023-05-02T04:17:59;9.10;99.90
48912;DHT22;34722;52.108;5.044;2023-05-02T04:20:25;9.10;99.90
48912;DHT22;34722;52.108;5.044;2023-05-02T04:22:51;9.10;99.90
48912;DHT22;34722;52.108;5.044;2023-05-02T04:25:17;9.10;99.90
48912;DHT22;34722;52.108;5.044;2023-05-02T04:27:43;9.10;99.90
48912;DHT22;34722;52.108;5.044;2023-05-02T04:30:22;9.00;99.90
48912;DHT22;34722;52.108;5.044;2023-05-02T04:32:48;9.00;99.90
48912;DHT22;34722;52.108;5.044;2023-05-02T04:35:13;9.00;99.90
48912;DHT22;34722;52.108;5.044;2023-05-02T04:37:39;9.10;99.90
48912;DHT22;34722;52.108;5.044;2023-05-02T04:40:05;9.10;99.90
48912;DHT22;34722;52.108;5.044;2023-05-02T04:42:31;9.20;99.90
48912;DHT22;34722;52.108;5.044;2023-05-02T04:44:57;9.30;99.90
48912;DHT22;34722;52.108;5.044;2023-05-02T04:47:23;9.40;99.90
48912;DHT22;34722;52.108;5.044;2023-05-02T04:49:48;9.40;99.90
48912;DHT22;34722;52.108;5.044;2023-05-02T04:52:14;9.40;99.90
48912;DHT22;34722;52.108;5.044;2023-05-02T04:54:40;9.40;99.90
48912;DHT22;34722;52.108;5.044;2023-05-02T04:57:05;9.40;99.90
48912;DHT22;34722;52.108;5.044;2023-05-02T04:59:32;9.50;99.90
48912;DHT22;34722;52.108;5.044;2023-05-02T05:01:58;9.50;99.90
48912;DHT22;34722;52.108;5.044;2023-05-02T05:04:36;9.60;99.90
48912;DHT22;34722;52.108;5.044;2023-05-02T05:07:02;9.70;99.90
48912;DHT22;34722;52.108;5.044;2023-05-02T05:09:28;9.70;99.90
48912;DHT22;34722;52.108;5.044;2023-05-02T05:11:54;9.70;99.90
48912;DHT22;34722;52.108;5.044;2023-05-02T05:14:20;9.80;99.90
48912;DHT22;34722;52.108;5.044;2023-05-02T05:16:46;9.80;99.90
48912;DHT22;34722;52.108;5.044;2023-05-02T05:19:11;9.80;99.90
48912;DHT22;34722;52.108;5.044;2023-05-02T05:21:37;9.90;99.90
48912;DHT22;34722;52.108;5.044;2023-05-02T05:24:03;9.90;99.90
48912;DHT22;34722;52.108;5.044;2023-05-02T05:26:29;10.00;99.90
48912;DHT22;34722;52.108;5.044;2023-05-02T05:28:55;10.10;99.90
48912;DHT22;34722;52.108;5.044;2023-05-02T05:34:05;10.10;99.90
48912;DHT22;34722;52.108;5.044;2023-05-02T05:36:31;10.00;99.90
48912;DHT22;34722;52.108;5.044;2023-05-02T05:39:02;10.00;99.90
48912;DHT22;34722;52.108;5.044;2023-05-02T05:41:28;9.90;99.90
48912;DHT22;34722;52.108;5.044;2023-05-02T05:43:55;9.80;99.90
48912;DHT22;34722;52.108;5.044;2023-05-02T05:46:29;9.80;99.90
48912;DHT22;34722;52.108;5.044;2023-05-02T05:48:55;9.70;99.90
48912;DHT22;34722;52.108;5.044;2023-05-02T05:51:23;9.80;99.90
48912;DHT22;34722;52.108;5.044;2023-05-02T05:53:52;9.90;99.90
48912;DHT22;34722;52.108;5.044;2023-05-02T05:56:33;10.00;99.90
48912;DHT22;34722;52.108;5.044;2023-05-02T05:58:59;10.20;99.90
48912;DHT22;34722;52.108;5.044;2023-05-02T06:01:25;10.40;99.90
48912;DHT22;34722;52.108;5.044;2023-05-02T06:03:51;10.40;92.50
48912;DHT22;34722;52.108;5.044;2023-05-02T06:06:17;10.60;87.10
48912;DHT22;34722;52.108;5.044;2023-05-02T06:08:43;10.70;53.90
48912;DHT22;34722;52.108;5.044;2023-05-02T06:11:09;10.70;25.40
48912;DHT22;34722;52.108;5.044;2023-05-02T06:13:36;10.80;25.30
48912;DHT22;34722;52.108;5.044;2023-05-02T06:16:02;10.80;28.40
48912;DHT22;34722;52.108;5.044;2023-05-02T06:18:28;10.90;26.70
48912;DHT22;34722;52.108;5.044;2023-05-02T06:20:54;11.00;11.30
48912;DHT22;34722;52.108;5.044;2023-05-02T06:23:19;11.00;1.00
48912;DHT22;34722;52.108;5.044;2023-05-02T06:25:45;11.10;1.00
48912;DHT22;34722;52.108;5.044;2023-05-02T06:28:11;11.20;1.00
48912;DHT22;34722;52.108;5.044;2023-05-02T06:30:37;11.20;1.00
48912;DHT22;34722;52.108;5.044;2023-05-02T06:33:05;11.20;1.00
48912;DHT22;34722;52.108;5.044;2023-05-02T06:35:32;11.30;1.00
48912;DHT22;34722;52.108;5.044;2023-05-02T06:37:57;11.40;99.90
48912;DHT22;34722;52.108;5.044;2023-05-02T06:40:26;11.60;1.00
48912;DHT22;34722;52.108;5.044;2023-05-02T06:42:52;11.70;1.00
48912;DHT22;34722;52.108;5.044;2023-05-02T06:45:17;11.60;1.00
48912;DHT22;34722;52.108;5.044;2023-05-02T06:47:45;11.50;1.00
48912;DHT22;34722;52.108;5.044;2023-05-02T06:50:11;11.40;99.90
48912;DHT22;34722;52.108;5.044;2023-05-02T06:52:37;11.30;24.40
48912;DHT22;34722;52.108;5.044;2023-05-02T06:55:03;11.10;99.90
48912;DHT22;34722;52.108;5.044;2023-05-02T06:57:31;11.00;99.90
48912;DHT22;34722;52.108;5.044;2023-05-02T06:59:57;10.90;99.90
48912;DHT22;34722;52.108;5.044;2023-05-02T07:02:23;10.90;99.90
48912;DHT22;34722;52.108;5.044;2023-05-02T07:04:48;11.00;99.90
48912;DHT22;34722;52.108;5.044;2023-05-02T07:07:14;10.70;1.00
48912;DHT22;34722;52.108;5.044;2023-05-02T07:09:42;10.70;99.90
48912;DHT22;34722;52.108;5.044;2023-05-02T07:12:08;10.70;99.90
48912;DHT22;34722;52.108;5.044;2023-05-02T07:14:34;10.60;99.90
48912;DHT22;34722;52.108;5.044;2023-05-02T07:16:59;10.80;1.00
48912;DHT22;34722;52.108;5.044;2023-05-02T07:19:25;11.00;1.00
48912;DHT22;34722;52.108;5.044;2023-05-02T07:21:50;11.00;1.00
48912;DHT22;34722;52.108;5.044;2023-05-02T07:24:16;10.90;99.90
48912;DHT22;34722;52.108;5.044;2023-05-02T07:27:24;11.00;99.90
48912;DHT22;34722;52.108;5.044;2023-05-02T07:37:05;12.10;99.90
48912;DHT22;34722;52.108;5.044;2023-05-02T07:39:32;12.10;1.00
48912;DHT22;34722;52.108;5.044;2023-05-02T07:41:58;12.30;1.00
48912;DHT22;34722;52.108;5.044;2023-05-02T08:01:30;13.80;1.00
48912;DHT22;34722;52.108;5.044;2023-05-02T08:07:31;13.00;1.00
48912;DHT22;34722;52.108;5.044;2023-05-02T08:09:57;12.90;1.00
48912;DHT22;34722;52.108;5.044;2023-05-02T08:12:23;13.20;1.00
48912;DHT22;34722;52.108;5.044;2023-05-02T08:14:49;13.10;1.00
48912;DHT22;34722;52.108;5.044;2023-05-02T08:17:16;12.90;1.00
48912;DHT22;34722;52.108;5.044;2023-05-02T08:19:41;12.80;1.00
48912;DHT22;34722;52.108;5.044;2023-05-02T08:22:07;12.90;1.00
48912;DHT22;34722;52.108;5.044;2023-05-02T08:24:32;12.90;1.00
48912;DHT22;34722;52.108;5.044;2023-05-02T08:26:58;12.70;1.00
48912;DHT22;34722;52.108;5.044;2023-05-02T08:29:24;12.80;1.00
48912;DHT22;34722;52.108;5.044;2023-05-02T08:31:52;12.70;99.90
48912;DHT22;34722;52.108;5.044;2023-05-02T08:34:18;12.30;99.90
48912;DHT22;34722;52.108;5.044;2023-05-02T08:36:44;12.20;99.90
48912;DHT22;34722;52.108;5.044;2023-05-02T08:39:10;12.20;99.90
48912;DHT22;34722;52.108;5.044;2023-05-02T08:41:37;12.40;99.90
48912;DHT22;34722;52.108;5.044;2023-05-02T08:44:04;12.70;99.90
48912;DHT22;34722;52.108;5.044;2023-05-02T08:46:31;13.40;99.90
48912;DHT22;34722;52.108;5.044;2023-05-02T08:49:00;14.50;99.90
48912;DHT22;34722;52.108;5.044;2023-05-02T08:51:27;15.20;93.90
48912;DHT22;34722;52.108;5.044;2023-05-02T08:53:54;16.90;1.00
48912;DHT22;34722;52.108;5.044;2023-05-02T08:56:20;19.70;1.00
48912;DHT22;34722;52.108;5.044;2023-05-02T08:58:46;21.40;99.90
48912;DHT22;34722;52.108;5.044;2023-05-02T09:01:17;20.00;99.90
48912;DHT22;34722;52.108;5.044;2023-05-02T09:03:44;18.90;99.90
48912;DHT22;34722;52.108;5.044;2023-05-02T09:06:21;18.60;99.90
48912;DHT22;34722;52.108;5.044;2023-05-02T09:08:48;18.20;99.90
48912;DHT22;34722;52.108;5.044;2023-05-02T09:11:15;19.10;99.90
48912;DHT22;34722;52.108;5.044;2023-05-02T09:13:48;20.10;99.90
48912;DHT22;34722;52.108;5.044;2023-05-02T09:16:23;20.90;99.90
48912;DHT22;34722;52.108;5.044;2023-05-02T09:18:58;21.00;99.90
48912;DHT22;34722;52.108;5.044;2023-05-02T09:21:25;20.70;99.90
48912;DHT22;34722;52.108;5.044;2023-05-02T09:23:56;20.20;99.90
48912;DHT22;34722;52.108;5.044;2023-05-02T09:26:27;19.00;99.90
48912;DHT22;34722;52.108;5.044;2023-05-02T09:28:56;19.10;99.90
48912;DHT22;34722;52.108;5.044;2023-05-02T09:31:24;18.60;99.90
48912;DHT22;34722;52.108;5.044;2023-05-02T09:33:54;18.90;99.90
48912;DHT22;34722;52.108;5.044;2023-05-02T09:36:23;18.40;99.90
48912;DHT22;34722;52.108;5.044;2023-05-02T09:38:49;18.10;98.20
48912;DHT22;34722;52.108;5.044;2023-05-02T09:41:16;17.50;88.70
48912;DHT22;34722;52.108;5.044;2023-05-02T09:43:55;17.30;91.30
48912;DHT22;34722;52.108;5.044;2023-05-02T09:46:22;18.30;96.90
48912;DHT22;34722;52.108;5.044;2023-05-02T09:48:51;18.50;90.60
48912;DHT22;34722;52.108;5.044;2023-05-02T09:51:18;18.00;75.40
48912;DHT22;34722;52.108;5.044;2023-05-02T09:53:44;18.90;88.40
48912;DHT22;34722;52.108;5.044;2023-05-02T09:56:10;21.20;92.00
48912;DHT22;34722;52.108;5.044;2023-05-02T09:58:36;22.70;83.40
48912;DHT22;34722;52.108;5.044;2023-05-02T10:01:02;23.50;59.20
48912;DHT22;34722;52.108;5.044;2023-05-02T10:03:28;24.70;47.40
48912;DHT22;34722;52.108;5.044;2023-05-02T10:05:55;23.60;21.50
48912;DHT22;34722;52.108;5.044;2023-05-02T10:08:25;21.20;1.00
48912;DHT22;34722;52.108;5.044;2023-05-02T10:11:03;20.70;1.00
48912;DHT22;34722;52.108;5.044;2023-05-02T10:13:32;22.90;9.60
48912;DHT22;34722;52.108;5.044;2023-05-02T10:16:04;25.30;10.20
48912;DHT22;34722;52.108;5.044;2023-05-02T10:19:00;27.00;8.80
48912;DHT22;34722;52.108;5.044;2023-05-02T10:21:30;25.60;1.00
48912;DHT22;34722;52.108;5.044;2023-05-02T10:23:56;25.60;1.00
48912;DHT22;34722;52.108;5.044;2023-05-02T10:26:23;26.30;1.00
48912;DHT22;34722;52.108;5.044;2023-05-02T10:28:53;26.50;1.00
48912;DHT22;34722;52.108;5.044;2023-05-02T10:31:21;27.10;1.00
48912;DHT22;34722;52.108;5.044;2023-05-02T10:33:50;27.40;1.00
48912;DHT22;34722;52.108;5.044;2023-05-02T10:36:20;27.20;1.00
48912;DHT22;34722;52.108;5.044;2023-05-02T10:38:47;27.50;1.00
48912;DHT22;34722;52.108;5.044;2023-05-02T10:41:16;27.50;1.00
48912;DHT22;34722;52.108;5.044;2023-05-02T10:43:48;27.90;1.00
48912;DHT22;34722;52.108;5.044;2023-05-02T10:49:03;28.10;1.00
48912;DHT22;34722;52.108;5.044;2023-05-02T10:51:29;26.60;1.00
48912;DHT22;34722;52.108;5.044;2023-05-02T10:59:44;22.70;1.00
48912;DHT22;34722;52.108;5.044;2023-05-02T11:05:06;22.10;1.00
48912;DHT22;34722;52.108;5.044;2023-05-02T11:07:36;23.50;1.00
48912;DHT22;34722;52.108;5.044;2023-05-02T11:12:47;25.70;1.00
48912;DHT22;34722;52.108;5.044;2023-05-02T11:15:53;25.30;1.00
48912;DHT22;34722;52.108;5.044;2023-05-02T11:18:12;24.10;1.00
48912;DHT22;34722;52.108;5.044;2023-05-02T11:20:39;24.80;1.00
48912;DHT22;34722;52.108;5.044;2023-05-02T11:34:00;25.30;1.00
48912;DHT22;34722;52.108;5.044;2023-05-02T11:36:27;24.60;1.00
48912;DHT22;34722;52.108;5.044;2023-05-02T11:38:54;24.10;1.00
48912;DHT22;34722;52.108;5.044;2023-05-02T11:41:19;23.50;1.00
48912;DHT22;34722;52.108;5.044;2023-05-02T11:43:45;23.00;1.00
48912;DHT22;34722;52.108;5.044;2023-05-02T11:46:11;22.50;1.00
48912;DHT22;34722;52.108;5.044;2023-05-02T11:48:36;24.10;1.00
48912;DHT22;34722;52.108;5.044;2023-05-02T11:51:02;23.00;1.00
48912;DHT22;34722;52.108;5.044;2023-05-02T11:53:29;21.90;1.00
48912;DHT22;34722;52.108;5.044;2023-05-02T11:56:00;22.80;1.00
48912;DHT22;34722;52.108;5.044;2023-05-02T11:58:31;24.10;1.00
48912;DHT22;34722;52.108;5.044;2023-05-02T12:00:58;24.30;1.00
48912;DHT22;34722;52.108;5.044;2023-05-02T12:03:30;24.50;1.00
48912;DHT22;34722;52.108;5.044;2023-05-02T12:05:57;23.80;1.00
48912;DHT22;34722;52.108;5.044;2023-05-02T12:08:33;21.10;1.00
48912;DHT22;34722;52.108;5.044;2023-05-02T12:10:58;20.20;1.00
48912;DHT22;34722;52.108;5.044;2023-05-02T12:13:25;21.60;1.00
48912;DHT22;34722;52.108;5.044;2023-05-02T12:15:52;21.70;1.00
48912;DHT22;34722;52.108;5.044;2023-05-02T12:18:19;20.00;1.00
48912;DHT22;34722;52.108;5.044;2023-05-02T12:20:51;20.70;1.00
48912;DHT22;34722;52.108;5.044;2023-05-02T12:23:19;21.90;1.00
48912;DHT22;34722;52.108;5.044;2023-05-02T12:25:45;23.10;1.00
48912;DHT22;34722;52.108;5.044;2023-05-02T12:28:11;23.20;1.00
48912;DHT22;34722;52.108;5.044;2023-05-02T12:30:38;22.80;1.00
48912;DHT22;34722;52.108;5.044;2023-05-02T12:33:05;21.80;1.00
48912;DHT22;34722;52.108;5.044;2023-05-02T12:35:31;20.00;1.00
48912;DHT22;34722;52.108;5.044;2023-05-02T12:38:10;19.40;1.00
48912;DHT22;34722;52.108;5.044;2023-05-02T12:40:36;19.10;1.00
48912;DHT22;34722;52.108;5.044;2023-05-02T12:43:03;18.90;1.00
48912;DHT22;34722;52.108;5.044;2023-05-02T12:45:32;18.40;1.00
48912;DHT22;34722;52.108;5.044;2023-05-02T12:48:05;18.10;1.00
48912;DHT22;34722;52.108;5.044;2023-05-02T12:50:42;18.10;1.00
48912;DHT22;34722;52.108;5.044;2023-05-02T12:53:08;17.80;1.00
48912;DHT22;34722;52.108;5.044;2023-05-02T12:55:35;17.00;1.00
48912;DHT22;34722;52.108;5.044;2023-05-02T12:58:09;16.90;1.00
48912;DHT22;34722;52.108;5.044;2023-05-02T13:00:40;17.10;1.00
48912;DHT22;34722;52.108;5.044;2023-05-02T13:03:07;16.40;1.00
48912;DHT22;34722;52.108;5.044;2023-05-02T13:05:36;16.40;1.00
48912;DHT22;34722;52.108;5.044;2023-05-02T13:08:02;16.40;1.00
48912;DHT22;34722;52.108;5.044;2023-05-02T13:10:28;16.20;1.00
48912;DHT22;34722;52.108;5.044;2023-05-02T13:12:54;16.20;1.00
48912;DHT22;34722;52.108;5.044;2023-05-02T13:15:20;16.10;1.00
48912;DHT22;34722;52.108;5.044;2023-05-02T13:17:46;15.90;1.00
48912;DHT22;34722;52.108;5.044;2023-05-02T13:20:12;15.70;1.00
48912;DHT22;34722;52.108;5.044;2023-05-02T13:22:38;15.70;1.00
48912;DHT22;34722;52.108;5.044;2023-05-02T13:25:05;15.70;1.00
48912;DHT22;34722;52.108;5.044;2023-05-02T13:27:31;15.30;1.00
48912;DHT22;34722;52.108;5.044;2023-05-02T13:30:01;15.90;1.00
48912;DHT22;34722;52.108;5.044;2023-05-02T13:32:27;16.40;1.00
48912;DHT22;34722;52.108;5.044;2023-05-02T13:34:53;16.30;1.00
48912;DHT22;34722;52.108;5.044;2023-05-02T13:37:19;16.60;1.00
48912;DHT22;34722;52.108;5.044;2023-05-02T13:39:44;16.30;1.00
48912;DHT22;34722;52.108;5.044;2023-05-02T13:42:10;16.00;1.00
48912;DHT22;34722;52.108;5.044;2023-05-02T13:44:36;16.00;1.00
48912;DHT22;34722;52.108;5.044;2023-05-02T13:47:02;15.80;1.00
48912;DHT22;34722;52.108;5.044;2023-05-02T13:49:28;16.00;1.00
48912;DHT22;34722;52.108;5.044;2023-05-02T13:51:54;16.10;1.00
48912;DHT22;34722;52.108;5.044;2023-05-02T13:54:20;15.90;1.00
48912;DHT22;34722;52.108;5.044;2023-05-02T13:56:46;15.90;1.00
48912;DHT22;34722;52.108;5.044;2023-05-02T13:59:11;15.50;1.00
48912;DHT22;34722;52.108;5.044;2023-05-02T14:01:37;15.90;1.00
48912;DHT22;34722;52.108;5.044;2023-05-02T14:04:05;16.00;1.00
48912;DHT22;34722;52.108;5.044;2023-05-02T14:06:33;16.20;1.00
48912;DHT22;34722;52.108;5.044;2023-05-02T14:08:59;16.30;1.00
48912;DHT22;34722;52.108;5.044;2023-05-02T14:11:25;16.50;1.00
48912;DHT22;34722;52.108;5.044;2023-05-02T14:13:51;16.40;1.00
48912;DHT22;34722;52.108;5.044;2023-05-02T14:16:17;16.20;1.00
48912;DHT22;34722;52.108;5.044;2023-05-02T14:18:43;15.90;1.00
48912;DHT22;34722;52.108;5.044;2023-05-02T14:21:10;14.80;1.00
48912;DHT22;34722;52.108;5.044;2023-05-02T14:23:35;15.20;1.00
48912;DHT22;34722;52.108;5.044;2023-05-02T14:26:01;15.30;1.00
48912;DHT22;34722;52.108;5.044;2023-05-02T14:46:24;15.60;1.00
48912;DHT22;34722;52.108;5.044;2023-05-02T14:48:54;15.30;1.00
48912;DHT22;34722;52.108;5.044;2023-05-02T14:56:10;15.00;1.00
48912;DHT22;34722;52.108;5.044;2023-05-02T14:59:12;15.00;1.00
48912;DHT22;34722;52.108;5.044;2023-05-02T15:06:31;14.80;1.00
48912;DHT22;34722;52.108;5.044;2023-05-02T15:09:18;14.30;1.00
48912;DHT22;34722;52.108;5.044;2023-05-02T15:11:56;14.30;1.00
48912;DHT22;34722;52.108;5.044;2023-05-02T15:14:43;14.20;1.00
48912;DHT22;34722;52.108;5.044;2023-05-02T15:17:35;14.00;1.00
48912;DHT22;34722;52.108;5.044;2023-05-02T15:20:22;14.20;1.00
48912;DHT22;34722;52.108;5.044;2023-05-02T15:38:15;14.20;1.00
48912;DHT22;34722;52.108;5.044;2023-05-02T17:03:49;12.30;1.00
48912;DHT22;34722;52.108;5.044;2023-05-02T17:18:04;12.00;32.30
48912;DHT22;34722;52.108;5.044;2023-05-02T17:20:30;12.00;42.10
48912;DHT22;34722;52.108;5.044;2023-05-02T17:22:59;12.00;39.50
48912;DHT22;34722;52.108;5.044;2023-05-02T17:25:26;12.00;50.00
48912;DHT22;34722;52.108;5.044;2023-05-02T17:27:51;11.90;60.70
48912;DHT22;34722;52.108;5.044;2023-05-02T17:30:17;11.70;67.80
48912;DHT22;34722;52.108;5.044;2023-05-02T17:32:46;11.70;82.20
48912;DHT22;34722;52.108;5.044;2023-05-02T17:35:12;11.50;83.90
48912;DHT22;34722;52.108;5.044;2023-05-02T17:37:38;11.50;90.10
48912;DHT22;34722;52.108;5.044;2023-05-02T17:40:05;11.40;99.90
48912;DHT22;34722;52.108;5.044;2023-05-02T17:42:31;11.30;99.90
48912;DHT22;34722;52.108;5.044;2023-05-02T17:44:59;11.40;99.90
48912;DHT22;34722;52.108;5.044;2023-05-02T17:47:25;11.10;99.90
48912;DHT22;34722;52.108;5.044;2023-05-02T17:49:51;10.90;99.90
48912;DHT22;34722;52.108;5.044;2023-05-02T17:52:18;10.70;99.90
48912;DHT22;34722;52.108;5.044;2023-05-02T17:54:47;10.70;99.90
48912;DHT22;34722;52.108;5.044;2023-05-02T17:57:12;10.80;99.90
48912;DHT22;34722;52.108;5.044;2023-05-02T17:59:47;10.70;99.90
48912;DHT22;34722;52.108;5.044;2023-05-02T18:02:15;10.60;99.90
48912;DHT22;34722;52.108;5.044;2023-05-02T18:04:42;10.50;99.90
48912;DHT22;34722;52.108;5.044;2023-05-02T18:07:17;10.50;99.90
48912;DHT22;34722;52.108;5.044;2023-05-02T18:09:51;10.40;99.90
48912;DHT22;34722;52.108;5.044;2023-05-02T18:12:21;10.30;99.90
48912;DHT22;34722;52.108;5.044;2023-05-02T18:14:48;10.20;99.90
48912;DHT22;34722;52.108;5.044;2023-05-02T18:17:14;10.10;99.90
48912;DHT22;34722;52.108;5.044;2023-05-02T18:19:44;10.00;99.90
48912;DHT22;34722;52.108;5.044;2023-05-02T18:22:10;10.00;99.90
48912;DHT22;34722;52.108;5.044;2023-05-02T18:24:38;9.90;99.90
48912;DHT22;34722;52.108;5.044;2023-05-02T18:27:05;9.90;99.90
48912;DHT22;34722;52.108;5.044;2023-05-02T18:29:34;9.90;99.90
48912;DHT22;34722;52.108;5.044;2023-05-02T18:32:00;9.80;99.90
48912;DHT22;34722;52.108;5.044;2023-05-02T18:34:30;9.70;99.90
48912;DHT22;34722;52.108;5.044;2023-05-02T18:37:01;9.70;99.90
48912;DHT22;34722;52.108;5.044;2023-05-02T18:39:29;9.70;99.90
48912;DHT22;34722;52.108;5.044;2023-05-02T18:41:56;9.60;1.00
48912;DHT22;34722;52.108;5.044;2023-05-02T18:44:22;9.50;1.00
48912;DHT22;34722;52.108;5.044;2023-05-02T18:46:47;9.50;1.00
48912;DHT22;34722;52.108;5.044;2023-05-02T18:49:13;9.40;1.00
48912;DHT22;34722;52.108;5.044;2023-05-02T18:51:39;9.40;1.00
48912;DHT22;34722;52.108;5.044;2023-05-02T18:54:04;9.50;1.00
48912;DHT22;34722;52.108;5.044;2023-05-02T18:56:32;9.40;1.00
48912;DHT22;34722;52.108;5.044;2023-05-02T18:58:58;9.30;1.00
48912;DHT22;34722;52.108;5.044;2023-05-02T19:01:24;9.20;59.80
48912;DHT22;34722;52.108;5.044;2023-05-02T19:03:51;9.10;99.90
48912;DHT22;34722;52.108;5.044;2023-05-02T19:06:18;9.10;99.90
48912;DHT22;34722;52.108;5.044;2023-05-02T19:08:45;9.00;99.90
48912;DHT22;34722;52.108;5.044;2023-05-02T19:11:11;9.00;99.90
48912;DHT22;34722;52.108;5.044;2023-05-02T19:13:37;8.90;99.90
48912;DHT22;34722;52.108;5.044;2023-05-02T19:16:03;8.90;99.90
48912;DHT22;34722;52.108;5.044;2023-05-02T19:18:28;8.90;1.00
48912;DHT22;34722;52.108;5.044;2023-05-02T19:20:54;8.80;1.00
48912;DHT22;34722;52.108;5.044;2023-05-02T19:23:20;8.80;1.00
48912;DHT22;34722;52.108;5.044;2023-05-02T19:25:46;8.80;1.00
48912;DHT22;34722;52.108;5.044;2023-05-02T19:28:12;8.70;1.00
48912;DHT22;34722;52.108;5.044;2023-05-02T19:30:40;8.70;1.00
48912;DHT22;34722;52.108;5.044;2023-05-02T19:33:07;8.70;1.00
48912;DHT22;34722;52.108;5.044;2023-05-02T19:35:34;8.60;1.00
48912;DHT22;34722;52.108;5.044;2023-05-02T19:38:00;8.60;21.50
48912;DHT22;34722;52.108;5.044;2023-05-02T19:40:26;8.60;88.20
48912;DHT22;34722;52.108;5.044;2023-05-02T19:42:52;8.50;92.50
48912;DHT22;34722;52.108;5.044;2023-05-02T19:45:17;8.50;99.90
48912;DHT22;34722;52.108;5.044;2023-05-02T19:47:43;8.40;99.90
48912;DHT22;34722;52.108;5.044;2023-05-02T19:50:10;8.40;99.90
48912;DHT22;34722;52.108;5.044;2023-05-02T19:52:36;8.40;99.90
48912;DHT22;34722;52.108;5.044;2023-05-02T19:55:04;8.40;99.90
48912;DHT22;34722;52.108;5.044;2023-05-02T19:57:40;8.30;1.00
48912;DHT22;34722;52.108;5.044;2023-05-02T20:00:08;8.30;1.00
48912;DHT22;34722;52.108;5.044;2023-05-02T20:02:34;8.20;1.00
48912;DHT22;34722;52.108;5.044;2023-05-02T20:05:00;8.20;1.00
48912;DHT22;34722;52.108;5.044;2023-05-02T20:07:47;8.20;34.00
48912;DHT22;34722;52.108;5.044;2023-05-02T20:10:20;8.10;99.90
48912;DHT22;34722;52.108;5.044;2023-05-02T20:13:13;8.00;99.90
48912;DHT22;34722;52.108;5.044;2023-05-02T20:16:13;8.00;99.90
48912;DHT22;34722;52.108;5.044;2023-05-02T20:24:30;7.90;1.00
48912;DHT22;34722;52.108;5.044;2023-05-02T20:26:55;7.90;1.00
48912;DHT22;34722;52.108;5.044;2023-05-02T20:29:24;7.90;1.00
48912;DHT22;34722;52.108;5.044;2023-05-02T20:31:49;7.90;1.00
48912;DHT22;34722;52.108;5.044;2023-05-02T20:34:18;7.80;1.00
48912;DHT22;34722;52.108;5.044;2023-05-02T20:36:43;7.90;7.60
48912;DHT22;34722;52.108;5.044;2023-05-02T20:39:09;7.80;36.40
48912;DHT22;34722;52.108;5.044;2023-05-02T20:41:36;7.80;99.90
48912;DHT22;34722;52.108;5.044;2023-05-02T20:44:02;7.70;1.00
48912;DHT22;34722;52.108;5.044;2023-05-02T20:46:28;7.70;1.00
48912;DHT22;34722;52.108;5.044;2023-05-02T20:48:54;7.70;30.90
48912;DHT22;34722;52.108;5.044;2023-05-02T20:51:20;7.70;99.90
48912;DHT22;34722;52.108;5.044;2023-05-02T20:53:46;7.60;1.00
48912;DHT22;34722;52.108;5.044;2023-05-02T20:56:13;7.70;99.90
48912;DHT22;34722;52.108;5.044;2023-05-02T20:58:39;7.70;99.90
48912;DHT22;34722;52.108;5.044;2023-05-02T21:01:05;7.70;1.00
48912;DHT22;34722;52.108;5.044;2023-05-02T21:09:03;7.60;1.00
48912;DHT22;34722;52.108;5.044;2023-05-02T21:11:34;7.50;1.00
48912;DHT22;34722;52.108;5.044;2023-05-02T21:14:07;7.50;1.00
48912;DHT22;34722;52.108;5.044;2023-05-02T21:16:37;7.40;99.90
48912;DHT22;34722;52.108;5.044;2023-05-02T21:19:03;7.40;99.90
48912;DHT22;34722;52.108;5.044;2023-05-02T21:21:29;7.40;1.00
48912;DHT22;34722;52.108;5.044;2023-05-02T21:24:05;7.30;99.90
48912;DHT22;34722;52.108;5.044;2023-05-02T21:26:34;7.40;1.00
48912;DHT22;34722;52.108;5.044;2023-05-02T21:29:08;7.30;1.00
48912;DHT22;34722;52.108;5.044;2023-05-02T21:31:36;7.30;1.00
48912;DHT22;34722;52.108;5.044;2023-05-02T21:34:03;7.20;1.00
48912;DHT22;34722;52.108;5.044;2023-05-02T21:36:29;7.20;1.00
48912;DHT22;34722;52.108;5.044;2023-05-02T21:38:55;7.20;1.00
48912;DHT22;34722;52.108;5.044;2023-05-02T21:41:21;7.20;1.00